createdAt,value
2022-12-23T00:00:22.704Z,23.17
2022-12-23T00:02:51.430Z,21.20
2022-12-23T00:05:19.955Z,22.00
2022-12-23T00:07:48.271Z,21.20
2022-12-23T00:10:17.028Z,21.00
2022-12-23T00:13:05.854Z,21.33
2022-12-23T00:15:35.906Z,21.00
2022-12-23T00:18:04.333Z,20.73
2022-12-23T00:20:34.376Z,19.93
2022-12-23T00:23:05.845Z,19.87
2022-12-23T00:25:44.833Z,19.87
2022-12-23T00:28:13.983Z,19.20
2022-12-23T00:30:47.872Z,19.83
2022-12-23T00:33:16.385Z,18.63
2022-12-23T00:35:44.831Z,18.07
2022-12-23T00:38:13.450Z,16.90
2022-12-23T00:40:59.336Z,15.57
2022-12-23T00:43:27.756Z,15.93
2022-12-23T00:45:57.469Z,15.93
2022-12-23T00:48:43.143Z,15.73
2022-12-23T00:51:11.508Z,15.07
2022-12-23T00:53:39.941Z,15.63
2022-12-23T00:56:08.512Z,16.03
2022-12-23T00:58:36.838Z,16.23
2022-12-23T01:01:32.830Z,18.97
2022-12-23T01:04:18.817Z,18.63
2022-12-23T01:06:47.128Z,16.40
2022-12-23T01:09:15.564Z,13.47
2022-12-23T01:11:43.838Z,13.20
2022-12-23T01:14:12.868Z,11.87
2022-12-23T01:16:42.728Z,12.37
2022-12-23T01:19:11.734Z,12.60
2022-12-23T01:21:40.074Z,10.37
2022-12-23T01:24:08.791Z,13.03
2022-12-23T01:26:37.098Z,11.77
2022-12-23T01:29:05.457Z,9.03
2022-12-23T01:31:33.881Z,9.73
2022-12-23T01:34:03.651Z,9.17
2022-12-23T01:36:32.012Z,10.20
2022-12-23T01:39:00.292Z,10.50
2022-12-23T01:41:47.703Z,10.97
2022-12-23T01:44:34.579Z,11.70
2022-12-23T01:47:02.930Z,8.07
2022-12-23T01:49:32.621Z,9.20
2022-12-23T01:52:01.036Z,9.37
2022-12-23T01:54:29.437Z,8.03
2022-12-23T01:56:57.807Z,8.07
2022-12-23T01:59:40.000Z,8.27
2022-12-23T02:02:40.438Z,8.50
2022-12-23T02:05:10.445Z,7.90
2022-12-23T02:07:56.263Z,8.77
2022-12-23T02:10:24.758Z,8.17
2022-12-23T02:12:54.066Z,8.70
2022-12-23T02:15:48.158Z,8.10
2022-12-23T02:18:31.353Z,8.73
2022-12-23T02:21:06.168Z,10.03
2022-12-23T02:23:52.283Z,10.23
2022-12-23T02:26:38.271Z,10.27
2022-12-23T02:29:13.099Z,9.87
2022-12-23T02:31:44.537Z,11.57
2022-12-23T02:34:14.571Z,10.50
2022-12-23T02:36:45.051Z,11.73
2022-12-23T02:39:15.599Z,13.10
2022-12-23T02:41:45.301Z,12.43
2022-12-23T02:44:16.123Z,13.80
2022-12-23T02:46:47.371Z,14.07
2022-12-23T02:49:17.130Z,13.83
2022-12-23T02:51:46.412Z,13.90
2022-12-23T02:54:15.177Z,14.50
2022-12-23T02:56:44.135Z,14.17
2022-12-23T02:59:13.408Z,13.70
2022-12-23T03:01:41.849Z,13.97
2022-12-23T03:04:11.604Z,15.77
2022-12-23T03:06:40.750Z,15.10
2022-12-23T03:09:09.150Z,16.40
2022-12-23T03:11:40.884Z,15.50
2022-12-23T03:14:17.121Z,16.33
2022-12-23T03:16:49.625Z,16.93
2022-12-23T03:19:21.356Z,16.30
2022-12-23T03:21:50.492Z,18.40
2022-12-23T03:24:21.254Z,18.43
2022-12-23T03:26:50.799Z,15.73
2022-12-23T03:29:19.618Z,16.80
2022-12-23T03:31:48.022Z,17.00
2022-12-23T03:34:17.397Z,17.47
2022-12-23T03:36:47.637Z,14.63
2022-12-23T03:39:17.560Z,15.83
2022-12-23T03:41:46.674Z,17.57
2022-12-23T03:44:15.849Z,15.53
2022-12-23T03:46:44.835Z,14.97
2022-12-23T03:49:13.873Z,16.20
2022-12-23T03:51:42.982Z,14.03
2022-12-23T03:54:13.890Z,11.27
2022-12-23T03:56:42.543Z,9.57
2022-12-23T03:59:12.251Z,10.60
2022-12-23T04:01:45.998Z,11.23
2022-12-23T04:04:16.771Z,10.93
2022-12-23T04:06:45.703Z,9.33
2022-12-23T04:09:21.513Z,10.00
2022-12-23T04:11:50.411Z,11.17
2022-12-23T04:14:19.475Z,10.17
2022-12-23T04:16:48.034Z,10.77
2022-12-23T04:19:17.662Z,10.40
2022-12-23T04:21:45.982Z,9.47
2022-12-23T04:24:15.781Z,10.63
2022-12-23T04:26:44.107Z,10.03
2022-12-23T04:29:12.516Z,8.47
2022-12-23T04:31:41.135Z,8.87
2022-12-23T04:34:09.545Z,9.77
2022-12-23T04:36:37.979Z,10.63
2022-12-23T04:39:06.390Z,9.30
2022-12-23T04:41:36.314Z,9.97
2022-12-23T04:44:04.835Z,9.90
2022-12-23T04:46:33.311Z,9.77
2022-12-23T04:49:01.698Z,9.77
2022-12-23T04:51:30.211Z,9.83
2022-12-23T04:53:58.656Z,8.97
2022-12-23T04:56:27.066Z,9.37
2022-12-23T04:58:56.755Z,9.90
2022-12-23T05:01:25.254Z,10.33
2022-12-23T05:03:53.754Z,9.83
2022-12-23T05:06:22.041Z,10.90
2022-12-23T05:08:50.368Z,11.73
2022-12-23T05:11:18.745Z,12.00
2022-12-23T05:13:47.166Z,12.47
2022-12-23T05:16:16.896Z,12.57
2022-12-23T05:18:45.251Z,12.70
2022-12-23T05:21:13.811Z,12.63
2022-12-23T05:23:42.337Z,13.27
2022-12-23T05:26:11.229Z,13.03
2022-12-23T05:28:39.557Z,13.70
2022-12-23T05:31:08.351Z,14.33
2022-12-23T05:33:38.361Z,13.93
2022-12-23T05:36:07.201Z,16.10
2022-12-23T05:38:35.563Z,16.40
2022-12-23T05:41:03.907Z,17.50
2022-12-23T05:43:32.257Z,18.87
2022-12-23T05:46:00.725Z,18.83
2022-12-23T05:48:29.088Z,18.73
2022-12-23T05:50:58.920Z,18.70
2022-12-23T05:53:27.382Z,19.73
2022-12-23T05:55:55.933Z,21.50
2022-12-23T05:58:24.362Z,20.47
2022-12-23T06:00:52.786Z,19.80
2022-12-23T06:03:21.422Z,19.03
2022-12-23T06:05:51.970Z,18.10
2022-12-23T06:08:21.757Z,17.23
2022-12-23T06:10:50.239Z,17.87
2022-12-23T06:13:18.511Z,17.20
2022-12-23T06:15:46.935Z,18.03
2022-12-23T06:18:15.281Z,18.77
2022-12-23T06:20:43.778Z,19.03
2022-12-23T06:23:12.202Z,19.23
2022-12-23T06:25:42.168Z,18.43
2022-12-23T06:28:10.595Z,19.27
2022-12-23T06:30:38.931Z,18.63
2022-12-23T06:33:07.560Z,20.47
2022-12-23T06:35:35.858Z,19.67
2022-12-23T06:38:08.774Z,20.53
2022-12-23T06:40:41.680Z,21.20
2022-12-23T06:43:11.328Z,20.43
2022-12-23T06:45:39.766Z,19.80
2022-12-23T06:48:08.336Z,21.70
2022-12-23T06:50:36.892Z,20.37
2022-12-23T06:53:05.314Z,20.80
2022-12-23T06:55:33.750Z,21.13
2022-12-23T06:58:03.528Z,22.10
2022-12-23T07:00:31.929Z,20.37
2022-12-23T07:03:00.343Z,21.60
2022-12-23T07:05:37.099Z,21.70
2022-12-23T07:08:05.952Z,22.97
2022-12-23T07:10:35.295Z,22.03
2022-12-23T07:13:05.230Z,20.60
2022-12-23T07:15:40.791Z,22.37
2022-12-23T07:18:09.346Z,22.43
2022-12-23T07:20:37.759Z,22.43
2022-12-23T07:23:06.121Z,21.23
2022-12-23T07:25:35.873Z,23.23
2022-12-23T07:28:06.672Z,24.10
2022-12-23T07:30:35.176Z,23.27
2022-12-23T07:33:03.695Z,23.03
2022-12-23T07:35:32.162Z,24.53
2022-12-23T07:38:09.521Z,23.63
2022-12-23T07:40:39.542Z,24.47
2022-12-23T07:43:13.769Z,22.37
2022-12-23T07:45:42.184Z,23.27
2022-12-23T07:48:10.529Z,22.23
2022-12-23T07:50:38.981Z,21.10
2022-12-23T07:53:07.764Z,19.90
2022-12-23T07:55:36.128Z,19.20
2022-12-23T07:58:04.529Z,17.43
2022-12-23T08:00:37.562Z,17.37
2022-12-23T08:03:06.149Z,16.70
2022-12-23T08:05:34.760Z,15.47
2022-12-23T08:08:03.145Z,15.27
2022-12-23T08:10:31.519Z,15.33
2022-12-23T08:13:01.857Z,14.93
2022-12-23T08:15:30.287Z,13.33
2022-12-23T08:18:00.142Z,12.10
2022-12-23T08:20:28.660Z,12.27
2022-12-23T08:22:57.184Z,11.67
2022-12-23T08:25:25.527Z,12.43
2022-12-23T08:27:54.093Z,13.40
2022-12-23T08:30:22.628Z,12.70
2022-12-23T08:32:51.486Z,12.47
2022-12-23T08:35:21.252Z,13.80
2022-12-23T08:37:49.752Z,13.00
2022-12-23T08:40:18.550Z,13.37
2022-12-23T08:42:47.043Z,12.97
2022-12-23T08:45:16.093Z,14.20
2022-12-23T08:47:44.782Z,13.47
2022-12-23T08:50:13.379Z,13.93
2022-12-23T08:52:43.169Z,13.43
2022-12-23T08:55:12.579Z,13.40
2022-12-23T08:57:41.068Z,13.37
2022-12-23T09:00:10.177Z,13.67
2022-12-23T09:02:38.731Z,13.73
2022-12-23T09:05:07.384Z,14.37
2022-12-23T09:07:35.785Z,15.67
2022-12-23T09:10:09.724Z,15.23
2022-12-23T09:12:38.117Z,14.80
2022-12-23T09:15:06.970Z,14.27
2022-12-23T09:17:35.382Z,14.37
2022-12-23T09:20:03.782Z,14.53
2022-12-23T09:22:34.040Z,14.70
2022-12-23T09:25:05.305Z,15.00
2022-12-23T09:27:35.385Z,14.77
2022-12-23T09:30:03.886Z,15.40
2022-12-23T09:32:32.533Z,15.97
2022-12-23T09:35:01.034Z,16.30
2022-12-23T09:37:29.608Z,15.60
2022-12-23T09:39:58.021Z,15.10
2022-12-23T09:42:28.736Z,15.50
2022-12-23T09:45:04.813Z,16.93
2022-12-23T09:47:33.219Z,16.97
2022-12-23T09:50:02.347Z,17.63
2022-12-23T09:52:32.947Z,17.93
2022-12-23T09:55:01.806Z,19.53
2022-12-23T09:57:31.878Z,18.83
2022-12-23T10:00:06.165Z,18.57
2022-12-23T10:02:39.204Z,19.83
2022-12-23T10:05:09.110Z,22.17
2022-12-23T10:07:37.969Z,22.77
2022-12-23T10:10:08.518Z,24.17
2022-12-23T10:12:40.218Z,23.97
2022-12-23T10:15:17.996Z,23.03
2022-12-23T10:17:46.432Z,25.20
2022-12-23T10:20:15.815Z,23.53
2022-12-23T10:22:44.976Z,23.97
2022-12-23T10:25:26.762Z,25.53
2022-12-23T10:27:55.341Z,23.77
2022-12-23T10:33:15.218Z,25.37
2022-12-23T10:35:46.692Z,26.20
2022-12-23T10:38:18.532Z,27.23
2022-12-23T10:40:49.380Z,27.20
2022-12-23T10:43:18.774Z,26.33
2022-12-23T10:45:50.160Z,27.23
2022-12-23T10:48:22.503Z,26.93
2022-12-23T10:50:55.992Z,27.50
2022-12-23T10:53:32.558Z,28.23
2022-12-23T10:56:00.919Z,27.67
2022-12-23T10:58:29.324Z,27.10
2022-12-23T11:00:59.654Z,27.70
2022-12-23T11:03:29.566Z,27.10
2022-12-23T11:05:58.691Z,28.27
2022-12-23T11:08:27.382Z,25.10
2022-12-23T11:10:55.885Z,24.67
2022-12-23T11:13:27.845Z,24.63
2022-12-23T11:15:56.270Z,23.67
2022-12-23T11:18:25.919Z,23.33
2022-12-23T11:21:03.724Z,23.57
2022-12-23T11:23:32.486Z,24.37
2022-12-23T11:26:04.049Z,24.00
2022-12-23T11:28:32.429Z,23.70
2022-12-23T11:31:01.166Z,22.20
2022-12-23T11:33:31.708Z,22.37
2022-12-23T11:36:03.951Z,22.63
2022-12-23T11:38:32.503Z,23.13
2022-12-23T11:41:00.910Z,22.30
2022-12-23T11:43:29.403Z,21.73
2022-12-23T11:46:17.685Z,23.30
2022-12-23T11:48:52.849Z,22.40
2022-12-23T11:51:26.886Z,22.00
2022-12-23T11:54:00.806Z,22.13
2022-12-23T11:56:29.327Z,23.23
2022-12-23T11:59:02.401Z,23.17
2022-12-23T12:01:31.057Z,23.27
2022-12-23T12:04:01.890Z,23.73
2022-12-23T12:06:30.469Z,23.77
2022-12-23T12:08:59.273Z,25.20
2022-12-23T12:11:28.372Z,26.03
2022-12-23T12:13:57.548Z,25.63
2022-12-23T12:16:30.791Z,25.83
2022-12-23T12:19:02.922Z,24.73
2022-12-23T12:21:32.391Z,26.37
2022-12-23T12:24:17.711Z,24.97
2022-12-23T12:26:51.412Z,25.50
2022-12-23T12:29:22.057Z,24.93
2022-12-23T12:31:50.915Z,25.90
2022-12-23T12:34:27.264Z,26.90
2022-12-23T12:36:57.623Z,27.03
2022-12-23T12:39:26.818Z,25.77
2022-12-23T12:42:01.641Z,25.97
2022-12-23T12:44:34.974Z,27.17
2022-12-23T12:47:15.939Z,26.20
2022-12-23T12:49:54.033Z,26.93
2022-12-23T12:52:23.135Z,26.27
2022-12-23T12:54:52.567Z,26.43
2022-12-23T12:57:21.337Z,27.73
2022-12-23T12:59:49.840Z,28.70
2022-12-23T13:02:22.571Z,28.07
2022-12-23T13:05:21.524Z,28.87
2022-12-23T13:07:56.260Z,28.17
2022-12-23T13:10:28.931Z,27.07
2022-12-23T13:12:58.966Z,26.13
2022-12-23T13:15:29.536Z,27.00
2022-12-23T13:18:04.572Z,27.23
2022-12-23T13:20:34.225Z,25.57
2022-12-23T13:23:27.104Z,25.30
2022-12-23T13:25:53.660Z,24.47
2022-12-23T13:28:28.132Z,23.87
2022-12-23T13:30:57.798Z,23.27
2022-12-23T13:33:27.010Z,22.53
2022-12-23T13:36:05.055Z,22.03
2022-12-23T13:38:41.871Z,19.93
2022-12-23T13:41:13.462Z,19.37
2022-12-23T13:43:43.808Z,19.00
2022-12-23T13:46:14.089Z,19.17
2022-12-23T13:48:42.839Z,17.50
2022-12-23T13:51:12.961Z,16.20
2022-12-23T13:53:48.594Z,16.87
2022-12-23T13:56:19.886Z,15.83
2022-12-23T13:58:49.201Z,14.60
2022-12-23T14:01:24.994Z,16.00
2022-12-23T14:03:57.007Z,16.07
2022-12-23T14:06:40.397Z,14.77
2022-12-23T14:09:10.205Z,15.67
2022-12-23T14:11:38.678Z,16.27
2022-12-23T14:14:07.326Z,16.67
2022-12-23T14:16:41.100Z,16.47
2022-12-23T14:19:21.694Z,17.03
2022-12-23T14:21:52.805Z,16.37
2022-12-23T14:24:35.959Z,15.90
2022-12-23T14:27:14.825Z,16.07
2022-12-23T14:29:47.274Z,16.17
2022-12-23T14:32:20.834Z,17.00
2022-12-23T14:35:06.884Z,16.37
2022-12-23T14:37:35.911Z,15.27
2022-12-23T14:40:24.042Z,15.77
2022-12-23T14:42:58.602Z,16.90
2022-12-23T14:45:30.174Z,18.97
2022-12-23T14:47:59.461Z,18.17
2022-12-23T14:50:37.969Z,18.80
2022-12-23T14:53:07.144Z,18.37
2022-12-23T14:55:45.532Z,16.70
2022-12-23T14:58:31.675Z,16.73
2022-12-23T15:01:03.524Z,15.83
2022-12-23T15:03:32.925Z,14.30
2022-12-23T15:06:01.457Z,12.83
2022-12-23T15:08:30.627Z,13.60
2022-12-23T15:10:59.231Z,12.33
2022-12-23T15:13:27.839Z,11.53
2022-12-23T15:16:01.473Z,13.20
2022-12-23T15:18:31.942Z,12.77
2022-12-23T15:21:00.980Z,13.90
2022-12-23T15:23:29.571Z,13.60
2022-12-23T15:25:58.862Z,13.70
2022-12-23T15:28:31.441Z,14.03
2022-12-23T15:31:01.052Z,14.67
2022-12-23T15:36:21.832Z,15.33
2022-12-23T15:38:50.397Z,14.60
2022-12-23T15:41:19.624Z,15.73
2022-12-23T15:43:47.965Z,16.37
2022-12-23T15:46:26.971Z,16.63
2022-12-23T15:48:58.048Z,15.97
2022-12-23T15:54:22.584Z,14.70
2022-12-23T15:56:51.347Z,14.73
2022-12-23T15:59:22.275Z,16.50
2022-12-23T16:01:50.824Z,14.50
2022-12-23T16:04:20.616Z,14.10
2022-12-23T16:06:51.501Z,14.07
2022-12-23T16:09:28.036Z,14.43
2022-12-23T16:11:57.554Z,14.37
2022-12-23T16:14:39.017Z,14.30
2022-12-23T16:17:18.294Z,14.20
2022-12-23T16:19:47.491Z,13.77
2022-12-23T16:22:21.697Z,10.20
2022-12-23T16:24:50.666Z,8.80
2022-12-23T16:27:20.529Z,7.33
2022-12-23T16:29:49.096Z,7.77
2022-12-23T16:32:17.935Z,7.97
2022-12-23T16:34:47.353Z,6.93
2022-12-23T16:37:15.695Z,6.43
2022-12-23T16:39:45.494Z,5.83
2022-12-23T16:42:13.839Z,5.73
2022-12-23T16:44:42.259Z,5.03
2022-12-23T16:47:10.628Z,4.53
2022-12-23T16:49:39.177Z,4.50
2022-12-23T16:52:09.294Z,4.57
2022-12-23T16:54:37.665Z,4.93
2022-12-23T16:57:07.443Z,4.20
2022-12-23T16:59:35.882Z,4.83
2022-12-23T17:02:04.318Z,5.03
2022-12-23T17:04:32.788Z,5.30
2022-12-23T17:07:01.312Z,5.50
2022-12-23T17:09:29.707Z,5.30
2022-12-23T17:11:58.277Z,5.87
2022-12-23T17:14:28.510Z,5.77
2022-12-23T17:16:57.778Z,5.90
2022-12-23T17:19:28.985Z,6.97
2022-12-23T17:21:59.720Z,7.67
2022-12-23T17:24:31.800Z,7.37
2022-12-23T17:27:00.256Z,9.27
2022-12-23T17:29:30.020Z,7.80
2022-12-23T17:31:58.708Z,8.13
2022-12-23T17:34:27.396Z,8.37
2022-12-23T17:36:56.016Z,9.10
2022-12-23T17:39:24.535Z,10.40
2022-12-23T17:41:53.023Z,10.10
2022-12-23T17:44:21.480Z,10.37
2022-12-23T17:46:51.473Z,10.53
2022-12-23T17:49:19.834Z,10.20
2022-12-23T17:51:48.281Z,9.60
2022-12-23T17:54:20.089Z,9.70
2022-12-23T17:56:48.596Z,11.40
2022-12-23T17:59:17.276Z,11.00
2022-12-23T18:01:45.877Z,9.27
2022-12-23T18:04:16.230Z,9.47
2022-12-23T18:06:45.135Z,9.53
2022-12-23T18:09:14.329Z,9.77
2022-12-23T18:11:44.225Z,9.27
2022-12-23T18:14:14.649Z,9.90
2022-12-23T18:16:43.551Z,9.27
2022-12-23T18:19:12.410Z,11.30
2022-12-23T18:21:42.239Z,9.20
2022-12-23T18:24:10.935Z,10.47
2022-12-23T18:26:39.682Z,9.93
2022-12-23T18:29:08.251Z,8.63
2022-12-23T18:31:37.212Z,9.80
2022-12-23T18:34:05.712Z,9.50
2022-12-23T18:36:34.940Z,9.97
2022-12-23T18:39:05.022Z,9.33
2022-12-23T18:41:33.396Z,9.87
2022-12-23T18:44:01.772Z,8.83
2022-12-23T18:46:30.274Z,10.43
2022-12-23T18:48:58.656Z,9.67
2022-12-23T18:51:27.049Z,7.83
2022-12-23T18:53:55.439Z,9.07
2022-12-23T18:56:25.201Z,9.30
2022-12-23T18:58:53.481Z,9.37
2022-12-23T19:01:21.980Z,8.13
2022-12-23T19:03:50.582Z,9.37
2022-12-23T19:06:19.111Z,8.27
2022-12-23T19:08:47.484Z,8.53
2022-12-23T19:11:16.403Z,8.27
2022-12-23T19:13:46.491Z,8.63
2022-12-23T19:16:15.499Z,9.97
2022-12-23T19:18:45.564Z,8.20
2022-12-23T19:21:14.033Z,8.70
2022-12-23T19:23:42.401Z,7.80
2022-12-23T19:26:10.791Z,8.37
2022-12-23T19:28:39.272Z,9.23
2022-12-23T19:31:10.357Z,9.67
2022-12-23T19:33:38.977Z,8.80
2022-12-23T19:36:11.109Z,8.93
2022-12-23T19:38:39.582Z,7.17
2022-12-23T19:41:08.308Z,7.47
2022-12-23T19:43:36.769Z,7.37
2022-12-23T19:46:05.820Z,7.60
2022-12-23T19:48:35.969Z,5.90
2022-12-23T19:51:04.712Z,5.90
2022-12-23T19:53:33.095Z,6.27
2022-12-23T19:56:02.250Z,6.80
2022-12-23T19:58:30.759Z,6.57
2022-12-23T20:01:06.420Z,6.80
2022-12-23T20:03:36.446Z,5.77
2022-12-23T20:06:06.409Z,6.97
2022-12-23T20:08:40.916Z,6.27
2022-12-23T20:11:09.720Z,6.00
2022-12-23T20:13:38.172Z,4.63
2022-12-23T20:16:07.080Z,5.13
2022-12-23T20:18:37.172Z,5.00
2022-12-23T20:21:07.049Z,5.77
2022-12-23T20:23:35.488Z,4.40
2022-12-23T20:26:03.930Z,4.93
2022-12-23T20:28:32.527Z,3.87
2022-12-23T20:31:01.755Z,4.57
2022-12-23T20:33:30.226Z,5.10
2022-12-23T20:36:00.008Z,4.37
2022-12-23T20:38:28.524Z,3.43
2022-12-23T20:40:56.979Z,4.47
2022-12-23T20:43:25.462Z,4.40
2022-12-23T20:45:54.299Z,4.37
2022-12-23T20:48:29.945Z,4.10
2022-12-23T20:51:06.533Z,3.80
2022-12-23T20:53:35.018Z,4.30
2022-12-23T20:56:04.361Z,3.90
2022-12-23T20:58:50.241Z,4.97
2022-12-23T21:01:18.900Z,3.83
2022-12-23T21:03:47.462Z,3.63
2022-12-23T21:06:17.414Z,4.73
2022-12-23T21:08:45.805Z,4.03
2022-12-23T21:11:17.172Z,4.47
2022-12-23T21:13:48.106Z,4.33
2022-12-23T21:16:16.573Z,4.30
2022-12-23T21:18:45.177Z,3.80
2022-12-23T21:21:13.635Z,4.00
2022-12-23T21:23:43.709Z,4.20
2022-12-23T21:26:13.831Z,4.83
2022-12-23T21:28:42.463Z,4.60
2022-12-23T21:31:11.199Z,4.70
2022-12-23T21:33:39.721Z,4.93
2022-12-23T21:36:08.581Z,4.63
2022-12-23T21:38:37.950Z,4.37
2022-12-23T21:41:08.459Z,5.47
2022-12-23T21:43:36.907Z,4.70
2022-12-23T21:46:05.854Z,4.37
2022-12-23T21:48:34.865Z,4.73
2022-12-23T21:51:06.625Z,4.70
2022-12-23T21:53:35.547Z,4.63
2022-12-23T21:56:04.464Z,4.00
2022-12-23T21:58:34.785Z,5.10
2022-12-23T22:01:04.463Z,5.57
2022-12-23T22:03:32.829Z,5.37
2022-12-23T22:06:09.951Z,5.67
2022-12-23T22:08:39.039Z,6.03
2022-12-23T22:11:10.566Z,5.87
2022-12-23T22:13:40.349Z,4.73
2022-12-23T22:16:11.991Z,6.17
2022-12-23T22:18:40.679Z,6.23
2022-12-23T22:21:09.242Z,5.83
2022-12-23T22:23:37.627Z,5.07
2022-12-23T22:26:06.559Z,5.23
2022-12-23T22:28:35.624Z,4.70
2022-12-23T22:31:05.905Z,5.13
2022-12-23T22:33:34.476Z,5.67
2022-12-23T22:36:02.980Z,5.03
2022-12-23T22:38:31.438Z,5.87
2022-12-23T22:40:59.813Z,5.73
2022-12-23T22:43:28.236Z,5.30
2022-12-23T22:45:57.277Z,4.87
2022-12-23T22:48:28.847Z,5.90
2022-12-23T22:51:04.101Z,5.87
2022-12-23T22:53:32.569Z,6.17
2022-12-23T22:56:01.015Z,5.90
2022-12-23T22:58:29.865Z,6.13
2022-12-23T23:00:58.842Z,6.10
2022-12-23T23:03:28.549Z,6.60
2022-12-23T23:05:57.654Z,6.43
2022-12-23T23:08:26.091Z,6.83
2022-12-23T23:10:54.621Z,6.07
2022-12-23T23:13:23.030Z,7.50
2022-12-23T23:15:51.608Z,6.47
2022-12-23T23:18:20.455Z,6.70
2022-12-23T23:20:50.717Z,5.73
2022-12-23T23:23:19.220Z,6.67
2022-12-23T23:25:47.522Z,7.07
2022-12-23T23:28:15.906Z,5.77
2022-12-23T23:30:44.270Z,6.70
2022-12-23T23:33:13.681Z,6.63
2022-12-23T23:35:42.011Z,5.70
2022-12-23T23:38:12.061Z,6.60
2022-12-23T23:40:40.431Z,5.87
2022-12-23T23:43:09.276Z,6.20
2022-12-23T23:45:37.686Z,5.87
2022-12-23T23:48:06.401Z,6.63
2022-12-23T23:50:34.806Z,5.97
2022-12-23T23:53:03.186Z,7.20
2022-12-23T23:55:32.898Z,6.60
2022-12-23T23:58:01.367Z,6.23
